sensor_id;sensor_type;location;lat;lon;timestamp;temperature;humidity
16271;DHT22;8243;49.048;8.396;2023-02-21T00:00:14;6.60;99.90
16271;DHT22;8243;49.048;8.396;2023-02-21T00:02:59;6.60;99.90
16271;DHT22;8243;49.048;8.396;2023-02-21T00:05:43;6.50;99.90
16271;DHT22;8243;49.048;8.396;2023-02-21T00:08:27;6.50;99.90
16271;DHT22;8243;49.048;8.396;2023-02-21T00:11:12;6.50;99.90
16271;DHT22;8243;49.048;8.396;2023-02-21T00:13:55;6.40;99.90
16271;DHT22;8243;49.048;8.396;2023-02-21T00:16:39;6.40;99.90
16271;DHT22;8243;49.048;8.396;2023-02-21T00:19:23;6.40;99.90
16271;DHT22;8243;49.048;8.396;2023-02-21T00:22:08;6.40;99.90
16271;DHT22;8243;49.048;8.396;2023-02-21T00:24:52;6.30;99.90
16271;DHT22;8243;49.048;8.396;2023-02-21T00:27:36;6.30;99.90
16271;DHT22;8243;49.048;8.396;2023-02-21T00:30:20;6.40;99.90
16271;DHT22;8243;49.048;8.396;2023-02-21T00:33:04;6.40;99.90
16271;DHT22;8243;49.048;8.396;2023-02-21T00:35:48;6.40;99.90
16271;DHT22;8243;49.048;8.396;2023-02-21T00:38:32;6.50;99.90
16271;DHT22;8243;49.048;8.396;2023-02-21T00:41:16;6.40;99.90
16271;DHT22;8243;49.048;8.396;2023-02-21T00:44:00;6.40;99.90
16271;DHT22;8243;49.048;8.396;2023-02-21T00:46:44;6.40;99.90
16271;DHT22;8243;49.048;8.396;2023-02-21T00:49:29;6.40;99.90
16271;DHT22;8243;49.048;8.396;2023-02-21T00:52:13;6.40;99.90
16271;DHT22;8243;49.048;8.396;2023-02-21T00:54:57;6.40;99.90
16271;DHT22;8243;49.048;8.396;2023-02-21T00:57:41;6.30;99.90
16271;DHT22;8243;49.048;8.396;2023-02-21T01:00:25;6.30;99.90
16271;DHT22;8243;49.048;8.396;2023-02-21T01:03:10;6.30;99.90
16271;DHT22;8243;49.048;8.396;2023-02-21T01:05:54;6.20;99.90
16271;DHT22;8243;49.048;8.396;2023-02-21T01:08:42;6.20;99.90
16271;DHT22;8243;49.048;8.396;2023-02-21T01:11:28;6.10;99.90
16271;DHT22;8243;49.048;8.396;2023-02-21T01:14:12;6.00;99.90
16271;DHT22;8243;49.048;8.396;2023-02-21T01:16:56;6.00;99.90
16271;DHT22;8243;49.048;8.396;2023-02-21T01:19:41;5.90;99.90
16271;DHT22;8243;49.048;8.396;2023-02-21T01:22:26;5.90;99.90
16271;DHT22;8243;49.048;8.396;2023-02-21T01:25:10;5.90;99.90
16271;DHT22;8243;49.048;8.396;2023-02-21T01:27:55;5.80;99.90
16271;DHT22;8243;49.048;8.396;2023-02-21T01:30:39;5.80;99.90
16271;DHT22;8243;49.048;8.396;2023-02-21T01:33:23;5.80;99.90
16271;DHT22;8243;49.048;8.396;2023-02-21T01:36:07;5.80;99.90
16271;DHT22;8243;49.048;8.396;2023-02-21T01:38:52;5.90;99.90
16271;DHT22;8243;49.048;8.396;2023-02-21T01:41:36;5.80;99.90
16271;DHT22;8243;49.048;8.396;2023-02-21T01:44:42;5.80;99.90
16271;DHT22;8243;49.048;8.396;2023-02-21T01:47:26;5.80;99.90
16271;DHT22;8243;49.048;8.396;2023-02-21T01:53:07;5.70;99.90
16271;DHT22;8243;49.048;8.396;2023-02-21T01:55:55;5.70;99.90
16271;DHT22;8243;49.048;8.396;2023-02-21T01:58:40;5.50;99.90
16271;DHT22;8243;49.048;8.396;2023-02-21T02:01:46;5.50;99.90
16271;DHT22;8243;49.048;8.396;2023-02-21T02:04:33;5.50;99.90
16271;DHT22;8243;49.048;8.396;2023-02-21T02:07:18;5.40;99.90
16271;DHT22;8243;49.048;8.396;2023-02-21T02:10:03;5.40;99.90
16271;DHT22;8243;49.048;8.396;2023-02-21T02:18:34;5.40;99.90
16271;DHT22;8243;49.048;8.396;2023-02-21T02:32:49;5.30;99.90
16271;DHT22;8243;49.048;8.396;2023-02-21T02:35:28;5.20;99.90
16271;DHT22;8243;49.048;8.396;2023-02-21T02:40:45;5.40;99.90
16271;DHT22;8243;49.048;8.396;2023-02-21T02:43:20;5.50;99.90
16271;DHT22;8243;49.048;8.396;2023-02-21T02:45:52;5.50;99.90
16271;DHT22;8243;49.048;8.396;2023-02-21T02:48:27;5.30;99.90
16271;DHT22;8243;49.048;8.396;2023-02-21T02:50:55;5.60;99.90
16271;DHT22;8243;49.048;8.396;2023-02-21T02:53:26;5.60;99.90
16271;DHT22;8243;49.048;8.396;2023-02-21T02:55:59;5.50;99.90
16271;DHT22;8243;49.048;8.396;2023-02-21T02:58:36;5.50;99.90
16271;DHT22;8243;49.048;8.396;2023-02-21T03:07:25;5.70;99.90
16271;DHT22;8243;49.048;8.396;2023-02-21T03:10:22;5.60;99.90
16271;DHT22;8243;49.048;8.396;2023-02-21T03:13:17;5.60;99.90
16271;DHT22;8243;49.048;8.396;2023-02-21T03:15:51;5.60;99.90
16271;DHT22;8243;49.048;8.396;2023-02-21T03:18:41;5.50;99.90
16271;DHT22;8243;49.048;8.396;2023-02-21T03:21:12;5.00;99.90
16271;DHT22;8243;49.048;8.396;2023-02-21T03:23:38;5.40;99.90
16271;DHT22;8243;49.048;8.396;2023-02-21T03:26:08;5.40;99.90
16271;DHT22;8243;49.048;8.396;2023-02-21T03:28:35;5.30;99.90
16271;DHT22;8243;49.048;8.396;2023-02-21T03:31:03;5.30;99.90
16271;DHT22;8243;49.048;8.396;2023-02-21T03:33:30;5.40;99.90
16271;DHT22;8243;49.048;8.396;2023-02-21T03:35:58;5.40;99.90
16271;DHT22;8243;49.048;8.396;2023-02-21T03:38:27;5.50;99.90
16271;DHT22;8243;49.048;8.396;2023-02-21T03:40:53;5.30;99.90
16271;DHT22;8243;49.048;8.396;2023-02-21T03:43:18;5.50;99.90
16271;DHT22;8243;49.048;8.396;2023-02-21T03:45:44;5.50;99.90
16271;DHT22;8243;49.048;8.396;2023-02-21T03:48:10;5.40;99.90
16271;DHT22;8243;49.048;8.396;2023-02-21T03:50:35;5.40;99.90
16271;DHT22;8243;49.048;8.396;2023-02-21T03:53:01;5.40;99.90
16271;DHT22;8243;49.048;8.396;2023-02-21T03:55:26;5.40;99.90
16271;DHT22;8243;49.048;8.396;2023-02-21T03:57:52;5.40;99.90
16271;DHT22;8243;49.048;8.396;2023-02-21T04:00:18;5.30;99.90
16271;DHT22;8243;49.048;8.396;2023-02-21T04:02:43;5.30;99.90
16271;DHT22;8243;49.048;8.396;2023-02-21T04:05:09;5.00;99.90
16271;DHT22;8243;49.048;8.396;2023-02-21T04:07:34;5.20;99.90
16271;DHT22;8243;49.048;8.396;2023-02-21T04:10:00;5.20;99.90
16271;DHT22;8243;49.048;8.396;2023-02-21T04:12:26;5.10;99.90
16271;DHT22;8243;49.048;8.396;2023-02-21T04:14:51;4.60;99.90
16271;DHT22;8243;49.048;8.396;2023-02-21T04:17:17;5.10;99.90
16271;DHT22;8243;49.048;8.396;2023-02-21T04:19:43;4.90;99.90
16271;DHT22;8243;49.048;8.396;2023-02-21T04:22:08;5.00;99.90
16271;DHT22;8243;49.048;8.396;2023-02-21T04:24:34;5.10;99.90
16271;DHT22;8243;49.048;8.396;2023-02-21T04:27:00;5.10;99.90
16271;DHT22;8243;49.048;8.396;2023-02-21T04:29:26;4.70;99.90
16271;DHT22;8243;49.048;8.396;2023-02-21T04:31:52;4.80;99.90
16271;DHT22;8243;49.048;8.396;2023-02-21T04:34:18;5.10;99.90
16271;DHT22;8243;49.048;8.396;2023-02-21T04:36:43;5.00;99.90
16271;DHT22;8243;49.048;8.396;2023-02-21T04:39:09;4.70;99.90
16271;DHT22;8243;49.048;8.396;2023-02-21T04:41:34;5.00;99.90
16271;DHT22;8243;49.048;8.396;2023-02-21T04:44:00;4.90;99.90
16271;DHT22;8243;49.048;8.396;2023-02-21T04:46:26;4.90;99.90
16271;DHT22;8243;49.048;8.396;2023-02-21T04:48:51;4.90;99.90
16271;DHT22;8243;49.048;8.396;2023-02-21T04:51:20;4.80;99.90
16271;DHT22;8243;49.048;8.396;2023-02-21T04:53:47;4.80;99.90
16271;DHT22;8243;49.048;8.396;2023-02-21T04:56:13;4.70;99.90
16271;DHT22;8243;49.048;8.396;2023-02-21T04:58:40;4.70;99.90
16271;DHT22;8243;49.048;8.396;2023-02-21T05:01:06;4.70;99.90
16271;DHT22;8243;49.048;8.396;2023-02-21T05:03:31;4.70;99.90
16271;DHT22;8243;49.048;8.396;2023-02-21T05:05:57;4.70;99.90
16271;DHT22;8243;49.048;8.396;2023-02-21T05:08:23;4.70;99.90
16271;DHT22;8243;49.048;8.396;2023-02-21T05:10:49;4.50;99.90
16271;DHT22;8243;49.048;8.396;2023-02-21T05:13:15;4.60;99.90
16271;DHT22;8243;49.048;8.396;2023-02-21T05:15:41;4.40;99.90
16271;DHT22;8243;49.048;8.396;2023-02-21T05:18:07;4.80;99.90
16271;DHT22;8243;49.048;8.396;2023-02-21T05:20:32;4.60;99.90
16271;DHT22;8243;49.048;8.396;2023-02-21T05:22:58;4.60;99.90
16271;DHT22;8243;49.048;8.396;2023-02-21T05:25:24;4.70;99.90
16271;DHT22;8243;49.048;8.396;2023-02-21T05:27:50;4.70;99.90
16271;DHT22;8243;49.048;8.396;2023-02-21T05:30:18;4.80;99.90
16271;DHT22;8243;49.048;8.396;2023-02-21T05:32:44;4.80;99.90
16271;DHT22;8243;49.048;8.396;2023-02-21T05:35:10;4.90;99.90
16271;DHT22;8243;49.048;8.396;2023-02-21T05:37:36;5.00;99.90
16271;DHT22;8243;49.048;8.396;2023-02-21T05:40:03;4.80;99.90
16271;DHT22;8243;49.048;8.396;2023-02-21T05:42:29;4.80;99.90
16271;DHT22;8243;49.048;8.396;2023-02-21T05:44:55;4.50;99.90
16271;DHT22;8243;49.048;8.396;2023-02-21T05:47:21;4.70;99.90
16271;DHT22;8243;49.048;8.396;2023-02-21T05:49:46;4.60;99.90
16271;DHT22;8243;49.048;8.396;2023-02-21T05:52:13;4.70;99.90
16271;DHT22;8243;49.048;8.396;2023-02-21T05:54:39;4.30;99.90
16271;DHT22;8243;49.048;8.396;2023-02-21T05:57:05;4.50;99.90
16271;DHT22;8243;49.048;8.396;2023-02-21T05:59:31;4.70;99.90
16271;DHT22;8243;49.048;8.396;2023-02-21T06:01:57;4.70;99.90
16271;DHT22;8243;49.048;8.396;2023-02-21T06:04:23;4.50;99.90
16271;DHT22;8243;49.048;8.396;2023-02-21T06:06:48;4.70;99.90
16271;DHT22;8243;49.048;8.396;2023-02-21T06:09:14;4.90;99.90
16271;DHT22;8243;49.048;8.396;2023-02-21T06:11:40;4.70;99.90
16271;DHT22;8243;49.048;8.396;2023-02-21T06:14:12;4.60;99.90
16271;DHT22;8243;49.048;8.396;2023-02-21T06:16:38;4.60;99.90
16271;DHT22;8243;49.048;8.396;2023-02-21T06:19:06;4.50;99.90
16271;DHT22;8243;49.048;8.396;2023-02-21T06:21:32;4.40;99.90
16271;DHT22;8243;49.048;8.396;2023-02-21T06:24:00;4.50;99.90
16271;DHT22;8243;49.048;8.396;2023-02-21T06:26:26;4.40;99.90
16271;DHT22;8243;49.048;8.396;2023-02-21T06:28:51;4.00;99.90
16271;DHT22;8243;49.048;8.396;2023-02-21T06:31:18;4.50;99.90
16271;DHT22;8243;49.048;8.396;2023-02-21T06:33:45;4.60;99.90
16271;DHT22;8243;49.048;8.396;2023-02-21T06:36:15;4.50;99.90
16271;DHT22;8243;49.048;8.396;2023-02-21T06:38:44;4.00;99.90
16271;DHT22;8243;49.048;8.396;2023-02-21T06:41:10;4.30;99.90
16271;DHT22;8243;49.048;8.396;2023-02-21T06:43:36;4.70;99.90
16271;DHT22;8243;49.048;8.396;2023-02-21T06:46:02;4.60;99.90
16271;DHT22;8243;49.048;8.396;2023-02-21T06:48:29;4.50;99.90
16271;DHT22;8243;49.048;8.396;2023-02-21T06:50:54;4.70;99.90
16271;DHT22;8243;49.048;8.396;2023-02-21T06:53:20;4.70;99.90
16271;DHT22;8243;49.048;8.396;2023-02-21T06:55:46;4.70;99.90
16271;DHT22;8243;49.048;8.396;2023-02-21T06:58:12;5.10;99.90
16271;DHT22;8243;49.048;8.396;2023-02-21T07:00:37;5.50;99.90
16271;DHT22;8243;49.048;8.396;2023-02-21T07:03:03;6.40;99.90
16271;DHT22;8243;49.048;8.396;2023-02-21T07:05:29;6.90;99.90
16271;DHT22;8243;49.048;8.396;2023-02-21T07:07:59;7.50;99.90
16271;DHT22;8243;49.048;8.396;2023-02-21T07:10:25;8.30;99.90
16271;DHT22;8243;49.048;8.396;2023-02-21T07:12:50;8.90;99.90
16271;DHT22;8243;49.048;8.396;2023-02-21T07:15:16;9.70;99.90
16271;DHT22;8243;49.048;8.396;2023-02-21T07:17:41;10.30;95.90
16271;DHT22;8243;49.048;8.396;2023-02-21T07:20:08;10.60;91.50
16271;DHT22;8243;49.048;8.396;2023-02-21T07:22:34;10.90;88.40
16271;DHT22;8243;49.048;8.396;2023-02-21T07:25:00;11.00;81.30
16271;DHT22;8243;49.048;8.396;2023-02-21T07:27:25;11.20;78.20
16271;DHT22;8243;49.048;8.396;2023-02-21T07:29:51;11.20;75.10
16271;DHT22;8243;49.048;8.396;2023-02-21T07:32:16;11.30;71.30
16271;DHT22;8243;49.048;8.396;2023-02-21T07:34:42;11.70;67.70
16271;DHT22;8243;49.048;8.396;2023-02-21T07:37:08;11.80;62.40
16271;DHT22;8243;49.048;8.396;2023-02-21T07:39:34;12.10;58.80
16271;DHT22;8243;49.048;8.396;2023-02-21T07:42:00;12.60;53.80
16271;DHT22;8243;49.048;8.396;2023-02-21T07:44:26;12.70;50.40
16271;DHT22;8243;49.048;8.396;2023-02-21T07:46:52;13.00;46.90
16271;DHT22;8243;49.048;8.396;2023-02-21T07:49:22;12.70;44.90
16271;DHT22;8243;49.048;8.396;2023-02-21T07:51:48;13.00;43.60
16271;DHT22;8243;49.048;8.396;2023-02-21T07:54:15;13.00;40.10
16271;DHT22;8243;49.048;8.396;2023-02-21T07:56:47;13.10;38.20
16271;DHT22;8243;49.048;8.396;2023-02-21T07:59:14;13.30;37.40
16271;DHT22;8243;49.048;8.396;2023-02-21T08:01:40;13.40;35.10
16271;DHT22;8243;49.048;8.396;2023-02-21T08:04:06;12.90;35.30
16271;DHT22;8243;49.048;8.396;2023-02-21T08:06:33;13.10;33.80
16271;DHT22;8243;49.048;8.396;2023-02-21T08:08:59;12.90;33.00
16271;DHT22;8243;49.048;8.396;2023-02-21T08:11:24;12.90;31.90
16271;DHT22;8243;49.048;8.396;2023-02-21T08:13:50;12.90;31.80
16271;DHT22;8243;49.048;8.396;2023-02-21T08:16:16;13.60;30.80
16271;DHT22;8243;49.048;8.396;2023-02-21T08:18:41;14.20;28.20
16271;DHT22;8243;49.048;8.396;2023-02-21T08:21:09;14.20;26.10
16271;DHT22;8243;49.048;8.396;2023-02-21T08:23:35;14.60;25.80
16271;DHT22;8243;49.048;8.396;2023-02-21T08:26:02;15.10;24.00
16271;DHT22;8243;49.048;8.396;2023-02-21T08:28:28;14.80;24.10
16271;DHT22;8243;49.048;8.396;2023-02-21T08:30:53;15.00;23.40
16271;DHT22;8243;49.048;8.396;2023-02-21T08:33:19;15.10;22.80
16271;DHT22;8243;49.048;8.396;2023-02-21T08:35:45;14.90;22.90
16271;DHT22;8243;49.048;8.396;2023-02-21T08:38:10;15.10;22.00
16271;DHT22;8243;49.048;8.396;2023-02-21T08:40:36;15.30;21.10
16271;DHT22;8243;49.048;8.396;2023-02-21T08:43:01;15.70;20.70
16271;DHT22;8243;49.048;8.396;2023-02-21T08:45:28;16.00;19.10
16271;DHT22;8243;49.048;8.396;2023-02-21T08:47:54;15.30;19.60
16271;DHT22;8243;49.048;8.396;2023-02-21T08:50:22;15.00;19.80
16271;DHT22;8243;49.048;8.396;2023-02-21T08:52:49;15.10;19.60
16271;DHT22;8243;49.048;8.396;2023-02-21T08:55:15;15.60;19.40
16271;DHT22;8243;49.048;8.396;2023-02-21T08:57:41;16.10;18.50
16271;DHT22;8243;49.048;8.396;2023-02-21T09:00:08;16.10;18.00
16271;DHT22;8243;49.048;8.396;2023-02-21T09:02:36;16.70;17.10
16271;DHT22;8243;49.048;8.396;2023-02-21T09:05:14;16.90;16.30
16271;DHT22;8243;49.048;8.396;2023-02-21T09:07:40;16.90;15.60
16271;DHT22;8243;49.048;8.396;2023-02-21T09:10:06;16.50;16.10
16271;DHT22;8243;49.048;8.396;2023-02-21T09:12:34;16.60;16.10
16271;DHT22;8243;49.048;8.396;2023-02-21T09:15:00;16.50;15.80
16271;DHT22;8243;49.048;8.396;2023-02-21T09:17:25;16.80;15.70
16271;DHT22;8243;49.048;8.396;2023-02-21T09:19:51;16.70;15.40
16271;DHT22;8243;49.048;8.396;2023-02-21T09:22:16;16.70;15.40
16271;DHT22;8243;49.048;8.396;2023-02-21T09:24:43;16.80;15.70
16271;DHT22;8243;49.048;8.396;2023-02-21T09:27:09;16.60;15.80
16271;DHT22;8243;49.048;8.396;2023-02-21T09:29:35;16.80;15.40
16271;DHT22;8243;49.048;8.396;2023-02-21T09:32:02;17.20;15.10
16271;DHT22;8243;49.048;8.396;2023-02-21T09:34:28;16.90;15.40
16271;DHT22;8243;49.048;8.396;2023-02-21T09:36:54;17.20;15.00
16271;DHT22;8243;49.048;8.396;2023-02-21T09:39:21;17.00;15.00
16271;DHT22;8243;49.048;8.396;2023-02-21T09:41:47;17.00;14.90
16271;DHT22;8243;49.048;8.396;2023-02-21T09:44:17;17.10;14.90
16271;DHT22;8243;49.048;8.396;2023-02-21T09:46:49;17.00;14.80
16271;DHT22;8243;49.048;8.396;2023-02-21T09:49:19;16.80;15.20
16271;DHT22;8243;49.048;8.396;2023-02-21T09:51:47;16.80;15.80
16271;DHT22;8243;49.048;8.396;2023-02-21T09:54:29;17.10;14.90
16271;DHT22;8243;49.048;8.396;2023-02-21T09:56:59;17.30;15.20
16271;DHT22;8243;49.048;8.396;2023-02-21T09:59:26;16.90;15.00
16271;DHT22;8243;49.048;8.396;2023-02-21T10:01:56;17.10;14.80
16271;DHT22;8243;49.048;8.396;2023-02-21T10:10:09;16.80;15.50
16271;DHT22;8243;49.048;8.396;2023-02-21T10:12:45;16.90;15.20
16271;DHT22;8243;49.048;8.396;2023-02-21T10:15:31;16.70;15.40
16271;DHT22;8243;49.048;8.396;2023-02-21T10:18:37;16.60;16.10
16271;DHT22;8243;49.048;8.396;2023-02-21T10:21:13;17.00;15.90
16271;DHT22;8243;49.048;8.396;2023-02-21T10:23:46;17.50;14.90
16271;DHT22;8243;49.048;8.396;2023-02-21T10:26:17;17.10;14.70
16271;DHT22;8243;49.048;8.396;2023-02-21T10:28:44;17.30;14.10
16271;DHT22;8243;49.048;8.396;2023-02-21T10:31:17;17.10;14.70
16271;DHT22;8243;49.048;8.396;2023-02-21T10:33:43;17.20;14.40
16271;DHT22;8243;49.048;8.396;2023-02-21T10:36:15;16.80;15.10
16271;DHT22;8243;49.048;8.396;2023-02-21T10:38:49;16.80;14.90
16271;DHT22;8243;49.048;8.396;2023-02-21T10:41:18;16.70;15.20
16271;DHT22;8243;49.048;8.396;2023-02-21T10:43:47;16.60;16.30
16271;DHT22;8243;49.048;8.396;2023-02-21T10:46:29;16.50;16.00
16271;DHT22;8243;49.048;8.396;2023-02-21T10:51:43;16.10;16.70
16271;DHT22;8243;49.048;8.396;2023-02-21T10:54:21;15.90;17.20
16271;DHT22;8243;49.048;8.396;2023-02-21T10:56:48;15.70;17.20
16271;DHT22;8243;49.048;8.396;2023-02-21T10:59:28;15.70;16.90
16271;DHT22;8243;49.048;8.396;2023-02-21T11:01:54;15.50;17.80
16271;DHT22;8243;49.048;8.396;2023-02-21T11:07:05;15.40;17.60
16271;DHT22;8243;49.048;8.396;2023-02-21T11:09:40;15.30;18.10
16271;DHT22;8243;49.048;8.396;2023-02-21T11:14:40;15.10;18.00
16271;DHT22;8243;49.048;8.396;2023-02-21T11:17:12;15.40;18.20
16271;DHT22;8243;49.048;8.396;2023-02-21T11:20:14;15.80;17.10
16271;DHT22;8243;49.048;8.396;2023-02-21T11:22:47;15.90;16.70
16271;DHT22;8243;49.048;8.396;2023-02-21T11:27:44;15.80;16.70
16271;DHT22;8243;49.048;8.396;2023-02-21T11:30:22;15.90;16.60
16271;DHT22;8243;49.048;8.396;2023-02-21T11:32:53;15.60;17.30
16271;DHT22;8243;49.048;8.396;2023-02-21T11:38:03;15.50;16.50
16271;DHT22;8243;49.048;8.396;2023-02-21T11:40:31;15.70;16.20
16271;DHT22;8243;49.048;8.396;2023-02-21T11:43:10;15.80;15.70
16271;DHT22;8243;49.048;8.396;2023-02-21T11:45:55;15.80;16.00
16271;DHT22;8243;49.048;8.396;2023-02-21T11:48:24;15.80;15.60
16271;DHT22;8243;49.048;8.396;2023-02-21T11:50:56;16.00;15.50
16271;DHT22;8243;49.048;8.396;2023-02-21T11:53:28;16.20;15.30
16271;DHT22;8243;49.048;8.396;2023-02-21T11:56:19;16.10;15.00
16271;DHT22;8243;49.048;8.396;2023-02-21T12:01:22;16.20;14.60
16271;DHT22;8243;49.048;8.396;2023-02-21T12:04:43;16.20;14.90
16271;DHT22;8243;49.048;8.396;2023-02-21T12:10:01;16.20;14.60
16271;DHT22;8243;49.048;8.396;2023-02-21T12:15:41;16.60;14.30
16271;DHT22;8243;49.048;8.396;2023-02-21T12:18:32;16.80;12.90
16271;DHT22;8243;49.048;8.396;2023-02-21T12:26:33;16.70;13.50
16271;DHT22;8243;49.048;8.396;2023-02-21T12:29:34;16.70;12.70
16271;DHT22;8243;49.048;8.396;2023-02-21T12:43:34;17.30;11.50
16271;DHT22;8243;49.048;8.396;2023-02-21T12:46:05;17.50;11.20
16271;DHT22;8243;49.048;8.396;2023-02-21T12:48:45;17.30;11.00
16271;DHT22;8243;49.048;8.396;2023-02-21T12:51:17;17.50;11.00
16271;DHT22;8243;49.048;8.396;2023-02-21T12:54:02;17.40;11.20
16271;DHT22;8243;49.048;8.396;2023-02-21T12:59:12;17.50;10.60
16271;DHT22;8243;49.048;8.396;2023-02-21T13:02:00;17.60;10.50
16271;DHT22;8243;49.048;8.396;2023-02-21T13:04:48;17.80;10.20
16271;DHT22;8243;49.048;8.396;2023-02-21T13:07:24;17.70;9.40
16271;DHT22;8243;49.048;8.396;2023-02-21T13:12:57;17.70;9.30
16271;DHT22;8243;49.048;8.396;2023-02-21T13:15:28;17.50;9.50
16271;DHT22;8243;49.048;8.396;2023-02-21T13:18:00;17.40;10.00
16271;DHT22;8243;49.048;8.396;2023-02-21T13:20:54;17.60;9.30
16271;DHT22;8243;49.048;8.396;2023-02-21T13:23:20;17.90;9.80
16271;DHT22;8243;49.048;8.396;2023-02-21T13:28:29;17.80;9.30
16271;DHT22;8243;49.048;8.396;2023-02-21T13:31:00;17.70;9.40
16271;DHT22;8243;49.048;8.396;2023-02-21T13:33:39;17.90;9.20
16271;DHT22;8243;49.048;8.396;2023-02-21T13:36:29;18.00;8.70
16271;DHT22;8243;49.048;8.396;2023-02-21T13:41:40;17.90;8.70
16271;DHT22;8243;49.048;8.396;2023-02-21T13:44:14;17.90;8.70
16271;DHT22;8243;49.048;8.396;2023-02-21T13:57:46;18.00;7.70
16271;DHT22;8243;49.048;8.396;2023-02-21T14:08:26;17.90;7.90
16271;DHT22;8243;49.048;8.396;2023-02-21T14:11:13;17.90;8.20
16271;DHT22;8243;49.048;8.396;2023-02-21T14:13:58;17.90;7.80
16271;DHT22;8243;49.048;8.396;2023-02-21T14:16:32;17.80;8.40
16271;DHT22;8243;49.048;8.396;2023-02-21T14:19:07;17.80;8.30
16271;DHT22;8243;49.048;8.396;2023-02-21T14:21:39;17.90;8.20
16271;DHT22;8243;49.048;8.396;2023-02-21T14:24:14;17.80;7.90
16271;DHT22;8243;49.048;8.396;2023-02-21T14:26:45;17.50;8.90
16271;DHT22;8243;49.048;8.396;2023-02-21T14:34:39;17.80;8.20
16271;DHT22;8243;49.048;8.396;2023-02-21T14:48:14;17.90;8.40
16271;DHT22;8243;49.048;8.396;2023-02-21T14:57:13;18.00;7.60
16271;DHT22;8243;49.048;8.396;2023-02-21T14:59:31;18.00;7.30
16271;DHT22;8243;49.048;8.396;2023-02-21T15:02:27;18.00;7.30
16271;DHT22;8243;49.048;8.396;2023-02-21T15:05:07;18.00;7.00
16271;DHT22;8243;49.048;8.396;2023-02-21T15:10:25;17.80;7.50
16271;DHT22;8243;49.048;8.396;2023-02-21T15:12:54;17.80;7.40
16271;DHT22;8243;49.048;8.396;2023-02-21T15:18:01;17.80;7.10
16271;DHT22;8243;49.048;8.396;2023-02-21T15:20:28;17.80;7.10
16271;DHT22;8243;49.048;8.396;2023-02-21T15:23:01;17.70;7.10
16271;DHT22;8243;49.048;8.396;2023-02-21T15:25:27;17.80;7.80
16271;DHT22;8243;49.048;8.396;2023-02-21T15:27:58;17.80;7.20
16271;DHT22;8243;49.048;8.396;2023-02-21T15:30:25;17.80;7.10
16271;DHT22;8243;49.048;8.396;2023-02-21T15:33:14;17.60;7.30
16271;DHT22;8243;49.048;8.396;2023-02-21T15:35:51;17.50;7.40
16271;DHT22;8243;49.048;8.396;2023-02-21T15:40:59;17.20;7.30
16271;DHT22;8243;49.048;8.396;2023-02-21T15:43:32;17.20;7.80
16271;DHT22;8243;49.048;8.396;2023-02-21T15:46:02;17.10;7.70
16271;DHT22;8243;49.048;8.396;2023-02-21T15:48:29;17.20;7.70
16271;DHT22;8243;49.048;8.396;2023-02-21T15:51:00;17.20;7.70
16271;DHT22;8243;49.048;8.396;2023-02-21T15:53:27;17.10;8.10
16271;DHT22;8243;49.048;8.396;2023-02-21T15:55:53;16.80;8.80
16271;DHT22;8243;49.048;8.396;2023-02-21T15:58:24;16.60;9.20
16271;DHT22;8243;49.048;8.396;2023-02-21T16:01:10;16.70;9.20
16271;DHT22;8243;49.048;8.396;2023-02-21T16:03:39;16.60;9.00
16271;DHT22;8243;49.048;8.396;2023-02-21T16:06:23;16.50;9.00
16271;DHT22;8243;49.048;8.396;2023-02-21T16:09:37;16.30;10.00
16271;DHT22;8243;49.048;8.396;2023-02-21T16:14:40;16.10;10.70
16271;DHT22;8243;49.048;8.396;2023-02-21T16:17:40;15.90;11.10
16271;DHT22;8243;49.048;8.396;2023-02-21T16:20:16;15.70;11.60
16271;DHT22;8243;49.048;8.396;2023-02-21T16:22:45;15.60;12.20
16271;DHT22;8243;49.048;8.396;2023-02-21T16:27:38;15.30;12.70
16271;DHT22;8243;49.048;8.396;2023-02-21T16:30:05;15.20;13.20
16271;DHT22;8243;49.048;8.396;2023-02-21T16:32:32;15.00;14.00
16271;DHT22;8243;49.048;8.396;2023-02-21T16:35:00;14.80;14.60
16271;DHT22;8243;49.048;8.396;2023-02-21T16:37:26;14.60;14.90
16271;DHT22;8243;49.048;8.396;2023-02-21T16:39:52;14.40;15.20
16271;DHT22;8243;49.048;8.396;2023-02-21T16:42:18;14.30;15.40
16271;DHT22;8243;49.048;8.396;2023-02-21T16:44:44;14.10;15.60
16271;DHT22;8243;49.048;8.396;2023-02-21T16:47:13;13.90;16.00
16271;DHT22;8243;49.048;8.396;2023-02-21T16:49:40;13.70;17.00
16271;DHT22;8243;49.048;8.396;2023-02-21T16:52:05;13.50;17.00
16271;DHT22;8243;49.048;8.396;2023-02-21T16:54:31;13.40;17.20
16271;DHT22;8243;49.048;8.396;2023-02-21T16:56:56;13.40;17.60
16271;DHT22;8243;49.048;8.396;2023-02-21T16:59:23;13.20;18.00
16271;DHT22;8243;49.048;8.396;2023-02-21T17:01:49;13.30;18.50
16271;DHT22;8243;49.048;8.396;2023-02-21T17:04:23;13.00;19.20
16271;DHT22;8243;49.048;8.396;2023-02-21T17:07:04;12.80;19.90
16271;DHT22;8243;49.048;8.396;2023-02-21T17:09:34;12.50;20.60
16271;DHT22;8243;49.048;8.396;2023-02-21T17:12:04;12.30;21.00
16271;DHT22;8243;49.048;8.396;2023-02-21T17:14:30;12.30;20.90
16271;DHT22;8243;49.048;8.396;2023-02-21T17:16:57;12.10;21.20
16271;DHT22;8243;49.048;8.396;2023-02-21T17:19:23;12.00;21.70
16271;DHT22;8243;49.048;8.396;2023-02-21T17:21:49;11.90;23.00
16271;DHT22;8243;49.048;8.396;2023-02-21T17:24:15;11.80;23.60
16271;DHT22;8243;49.048;8.396;2023-02-21T17:26:41;11.60;24.10
16271;DHT22;8243;49.048;8.396;2023-02-21T17:29:07;11.50;23.90
16271;DHT22;8243;49.048;8.396;2023-02-21T17:31:33;11.30;24.70
16271;DHT22;8243;49.048;8.396;2023-02-21T17:33:59;11.10;25.50
16271;DHT22;8243;49.048;8.396;2023-02-21T17:36:26;11.10;24.90
16271;DHT22;8243;49.048;8.396;2023-02-21T17:38:52;11.00;25.40
16271;DHT22;8243;49.048;8.396;2023-02-21T17:41:18;11.00;25.50
16271;DHT22;8243;49.048;8.396;2023-02-21T17:43:45;10.80;25.70
16271;DHT22;8243;49.048;8.396;2023-02-21T17:46:14;10.70;26.40
16271;DHT22;8243;49.048;8.396;2023-02-21T17:48:41;10.60;27.10
16271;DHT22;8243;49.048;8.396;2023-02-21T17:51:07;10.50;27.70
16271;DHT22;8243;49.048;8.396;2023-02-21T17:53:33;10.50;28.30
16271;DHT22;8243;49.048;8.396;2023-02-21T17:55:59;10.40;29.00
16271;DHT22;8243;49.048;8.396;2023-02-21T17:58:26;10.30;29.30
16271;DHT22;8243;49.048;8.396;2023-02-21T18:00:51;10.10;29.70
16271;DHT22;8243;49.048;8.396;2023-02-21T18:03:20;10.00;30.30
16271;DHT22;8243;49.048;8.396;2023-02-21T18:05:45;9.80;32.40
16271;DHT22;8243;49.048;8.396;2023-02-21T18:08:11;9.70;33.40
16271;DHT22;8243;49.048;8.396;2023-02-21T18:10:37;9.70;34.40
16271;DHT22;8243;49.048;8.396;2023-02-21T18:13:02;9.50;35.00
16271;DHT22;8243;49.048;8.396;2023-02-21T18:15:28;9.40;36.00
16271;DHT22;8243;49.048;8.396;2023-02-21T18:17:54;9.30;35.80
16271;DHT22;8243;49.048;8.396;2023-02-21T18:20:19;9.30;35.90
16271;DHT22;8243;49.048;8.396;2023-02-21T18:22:45;9.20;37.00
16271;DHT22;8243;49.048;8.396;2023-02-21T18:25:12;9.10;37.20
16271;DHT22;8243;49.048;8.396;2023-02-21T18:27:41;9.00;37.90
16271;DHT22;8243;49.048;8.396;2023-02-21T18:30:07;8.90;37.80
16271;DHT22;8243;49.048;8.396;2023-02-21T18:32:33;8.80;39.90
16271;DHT22;8243;49.048;8.396;2023-02-21T18:34:58;8.70;41.70
16271;DHT22;8243;49.048;8.396;2023-02-21T18:37:24;8.70;42.20
16271;DHT22;8243;49.048;8.396;2023-02-21T18:39:54;8.70;41.90
16271;DHT22;8243;49.048;8.396;2023-02-21T18:42:20;8.60;42.70